createdAt,value
2023-03-06T00:01:03.665Z,99079.31
2023-03-06T00:03:30.667Z,99072.41
2023-03-06T00:05:58.762Z,99083.09
2023-03-06T00:08:28.434Z,99079.63
2023-03-06T00:10:56.553Z,99067.44
2023-03-06T00:13:23.944Z,99076.34
2023-03-06T00:15:50.931Z,99072.06
2023-03-06T00:18:18.110Z,99072.88
2023-03-06T00:20:45.365Z,99070.44
2023-03-06T00:23:12.654Z,99073.06
2023-03-06T00:25:44.344Z,99068.78
2023-03-06T00:28:14.649Z,99068.78
2023-03-06T00:30:42.191Z,99060.19
2023-03-06T00:33:09.261Z,99059.38
2023-03-06T00:35:39.640Z,99062.19
2023-03-06T00:38:06.936Z,99056.91
2023-03-06T00:40:34.134Z,99063.34
2023-03-06T00:43:01.068Z,99046.66
2023-03-06T00:45:28.056Z,99045.84
2023-03-06T00:47:55.033Z,99044.38
2023-03-06T00:50:21.968Z,99043.38
2023-03-06T00:52:49.141Z,99042.72
2023-03-06T00:55:16.363Z,99040.09
2023-03-06T00:57:43.277Z,99031.53
2023-03-06T01:00:12.302Z,99028.22
2023-03-06T01:02:39.467Z,99030.22
2023-03-06T01:05:08.230Z,99029.38
2023-03-06T01:07:36.934Z,99032.84
2023-03-06T01:10:07.892Z,99028.56
2023-03-06T01:12:35.210Z,99025.44
2023-03-06T01:15:02.244Z,99020.31
2023-03-06T01:17:29.235Z,99018.69
2023-03-06T01:19:57.009Z,99015.41
2023-03-06T01:22:23.971Z,99019.00
2023-03-06T01:24:50.903Z,99010.44
2023-03-06T01:27:17.843Z,99006.81
2023-03-06T01:29:44.794Z,98997.25
2023-03-06T01:32:11.814Z,98998.41
2023-03-06T01:34:38.800Z,99000.22
2023-03-06T01:37:05.778Z,98983.59
2023-03-06T01:39:32.687Z,98986.22
2023-03-06T01:41:59.623Z,98982.78
2023-03-06T01:44:26.560Z,98976.81
2023-03-06T01:46:53.490Z,98973.19
2023-03-06T01:49:29.942Z,98969.91
2023-03-06T01:52:18.588Z,98965.63
2023-03-06T01:54:53.068Z,98964.63
2023-03-06T01:57:26.096Z,98964.63
2023-03-06T02:00:03.521Z,98959.72
2023-03-06T02:02:47.282Z,98952.75
2023-03-06T02:05:14.302Z,98960.66
2023-03-06T02:07:42.816Z,98953.75
2023-03-06T02:10:13.961Z,98952.94
2023-03-06T02:12:43.650Z,98952.94
2023-03-06T02:15:14.459Z,98949.47
2023-03-06T02:17:45.060Z,98944.19
2023-03-06T02:20:26.659Z,98950.47
2023-03-06T02:23:08.588Z,98942.91
2023-03-06T02:25:49.244Z,98939.41
2023-03-06T02:28:21.179Z,98939.41
2023-03-06T02:30:51.743Z,98938.59
2023-03-06T02:33:23.233Z,98938.78
2023-03-06T02:35:57.419Z,98936.97
2023-03-06T02:38:31.790Z,98936.13
2023-03-06T02:41:01.737Z,98924.78
2023-03-06T02:43:35.338Z,98928.41
2023-03-06T02:46:02.959Z,98917.88
2023-03-06T02:48:29.971Z,98923.13
2023-03-06T02:50:56.895Z,98911.94
2023-03-06T02:53:24.279Z,98912.91
2023-03-06T02:55:52.036Z,98905.19
2023-03-06T02:58:20.610Z,98904.34
2023-03-06T03:00:49.484Z,98907.97
2023-03-06T03:03:17.299Z,98907.16
2023-03-06T03:05:44.451Z,98902.88
2023-03-06T03:08:19.552Z,98901.38
2023-03-06T03:10:46.885Z,98899.75
2023-03-06T03:13:14.576Z,98911.13
2023-03-06T03:15:42.490Z,98899.75
2023-03-06T03:18:11.729Z,98899.75
2023-03-06T03:20:42.987Z,98892.84
2023-03-06T03:23:10.020Z,98903.38
2023-03-06T03:25:36.962Z,98897.28
2023-03-06T03:28:04.591Z,98896.47
2023-03-06T03:30:31.646Z,98897.47
2023-03-06T03:32:58.668Z,98893.81
2023-03-06T03:35:26.517Z,98890.38
2023-03-06T03:37:55.160Z,98888.72
2023-03-06T03:40:22.251Z,98879.34
2023-03-06T03:42:50.893Z,98880.31
2023-03-06T03:45:18.054Z,98880.16
2023-03-06T03:47:45.544Z,98878.34
2023-03-06T03:50:13.540Z,98872.41
2023-03-06T03:52:41.015Z,98875.88
2023-03-06T03:55:08.660Z,98876.88
2023-03-06T03:57:39.107Z,98877.69
2023-03-06T04:00:08.120Z,98870.78
2023-03-06T04:02:40.950Z,98865.50
2023-03-06T04:05:17.109Z,98869.13
2023-03-06T04:07:44.411Z,98860.59
2023-03-06T04:10:13.130Z,98855.63
2023-03-06T04:12:40.608Z,98856.44
2023-03-06T04:15:09.518Z,98852.81
2023-03-06T04:17:36.656Z,98853.00
2023-03-06T04:20:07.473Z,98845.91
2023-03-06T04:22:34.782Z,98848.38
2023-03-06T04:25:01.825Z,98845.28
2023-03-06T04:27:28.859Z,98852.00
2023-03-06T04:29:56.360Z,98851.19
2023-03-06T04:32:24.196Z,98841.63
2023-03-06T04:34:51.656Z,98839.81
2023-03-06T04:37:25.318Z,98831.28
2023-03-06T04:39:53.282Z,98835.72
2023-03-06T04:42:20.194Z,98823.38
2023-03-06T04:44:47.143Z,98824.38
2023-03-06T04:47:14.283Z,98825.19
2023-03-06T04:49:41.251Z,98826.00
2023-03-06T04:52:08.800Z,98821.56
2023-03-06T04:54:35.755Z,98823.38
2023-03-06T04:57:02.858Z,98827.66
2023-03-06T04:59:29.780Z,98824.19
2023-03-06T05:01:56.840Z,98822.38
2023-03-06T05:04:23.904Z,98822.38
2023-03-06T05:06:50.895Z,98814.47
2023-03-06T05:09:17.806Z,98814.47
2023-03-06T05:11:44.762Z,98803.28
2023-03-06T05:14:11.705Z,98808.56
2023-03-06T05:16:38.664Z,98813.81
2023-03-06T05:19:05.789Z,98813.00
2023-03-06T05:21:32.724Z,98815.47
2023-03-06T05:23:59.711Z,98820.72
2023-03-06T05:26:26.641Z,98809.38
2023-03-06T05:28:55.196Z,98815.47
2023-03-06T05:31:22.144Z,98814.47
2023-03-06T05:33:49.097Z,98815.47
2023-03-06T05:36:16.012Z,98808.56
2023-03-06T05:38:42.955Z,98808.38
2023-03-06T05:41:13.043Z,98801.66
2023-03-06T05:43:40.085Z,98804.09
2023-03-06T05:46:07.512Z,98803.28
2023-03-06T05:48:36.136Z,98807.72
2023-03-06T05:51:03.997Z,98805.91
2023-03-06T05:53:31.909Z,98806.91
2023-03-06T05:56:03.064Z,98806.91
2023-03-06T05:58:31.165Z,98810.50
2023-03-06T06:00:58.531Z,98802.59
2023-03-06T06:03:25.787Z,98809.69
2023-03-06T06:05:53.094Z,98808.88
2023-03-06T06:08:21.066Z,98813.16
2023-03-06T06:10:48.042Z,98813.16
2023-03-06T06:13:15.056Z,98812.19
2023-03-06T06:15:42.009Z,98805.25
2023-03-06T06:18:09.008Z,98803.44
2023-03-06T06:20:37.703Z,98808.69
2023-03-06T06:23:05.055Z,98805.25
2023-03-06T06:25:33.261Z,98801.66
2023-03-06T06:28:00.221Z,98791.09
2023-03-06T06:30:27.138Z,98814.66
2023-03-06T06:32:54.109Z,98800.78
2023-03-06T06:35:21.204Z,98811.19
2023-03-06T06:37:49.025Z,98810.19
2023-03-06T06:40:16.354Z,98812.00
2023-03-06T06:42:43.948Z,98809.38
2023-03-06T06:45:12.015Z,98816.28
2023-03-06T06:47:43.332Z,98807.56
2023-03-06T06:50:14.028Z,98817.09
2023-03-06T06:52:41.387Z,98813.66
2023-03-06T06:55:08.969Z,98825.00
2023-03-06T06:57:35.907Z,98820.38
2023-03-06T07:00:04.844Z,98828.28
2023-03-06T07:02:32.249Z,98832.41
2023-03-06T07:05:05.003Z,98830.59
2023-03-06T07:07:35.763Z,98832.25
2023-03-06T07:10:07.981Z,98841.78
2023-03-06T07:12:35.106Z,98839.97
2023-03-06T07:15:02.864Z,98835.53
2023-03-06T07:17:30.055Z,98832.72
2023-03-06T07:19:57.070Z,98836.84
2023-03-06T07:22:24.244Z,98838.47
2023-03-06T07:24:51.190Z,98837.66
2023-03-06T07:27:18.180Z,98840.13
2023-03-06T07:29:45.237Z,98836.50
2023-03-06T07:32:12.618Z,98840.75
2023-03-06T07:34:39.651Z,98838.13
2023-03-06T07:37:06.638Z,98833.69
2023-03-06T07:39:33.546Z,98837.97
2023-03-06T07:42:00.551Z,98840.63
2023-03-06T07:44:28.012Z,98848.34
2023-03-06T07:46:55.022Z,98844.72
2023-03-06T07:49:21.955Z,98846.19
2023-03-06T07:51:48.930Z,98839.09
2023-03-06T07:54:15.846Z,98842.41
2023-03-06T07:56:42.906Z,98846.69
2023-03-06T07:59:11.610Z,98843.03
2023-03-06T08:01:42.176Z,98842.88
2023-03-06T08:04:09.275Z,98834.81
2023-03-06T08:06:36.435Z,98839.72
2023-03-06T08:09:03.887Z,98841.38
2023-03-06T08:11:31.965Z,98843.84
2023-03-06T08:13:59.637Z,98844.50
2023-03-06T08:16:30.050Z,98851.25
2023-03-06T08:18:57.736Z,98846.78
2023-03-06T08:21:27.680Z,98855.34
2023-03-06T08:23:55.042Z,98849.91
2023-03-06T08:26:26.028Z,98854.19
2023-03-06T08:28:53.927Z,98861.94
2023-03-06T08:31:35.721Z,98854.03
2023-03-06T08:34:07.921Z,98860.75
2023-03-06T08:36:35.111Z,98861.25
2023-03-06T08:39:03.081Z,98858.44
2023-03-06T08:41:30.724Z,98855.47
2023-03-06T08:43:57.805Z,98869.94
2023-03-06T08:46:28.706Z,98864.34
2023-03-06T08:48:55.644Z,98864.63
2023-03-06T08:51:23.740Z,98871.03
2023-03-06T08:53:51.734Z,98871.34
2023-03-06T08:56:31.867Z,98871.47
2023-03-06T08:59:01.754Z,98873.94
2023-03-06T09:01:33.044Z,98880.97
2023-03-06T09:04:03.482Z,98885.38
2023-03-06T09:06:34.916Z,98881.03
2023-03-06T09:09:02.564Z,98884.81
2023-03-06T09:11:29.895Z,98881.81
2023-03-06T09:13:57.332Z,98883.75
2023-03-06T09:16:24.975Z,98877.47
2023-03-06T09:18:52.957Z,98882.56
2023-03-06T09:21:22.205Z,98883.22
2023-03-06T09:23:49.349Z,98873.47
2023-03-06T09:26:16.517Z,98884.69
2023-03-06T09:28:43.564Z,98885.31
2023-03-06T09:31:13.941Z,98886.31
2023-03-06T09:33:41.375Z,98883.34
2023-03-06T09:36:13.592Z,98887.81
2023-03-06T09:38:40.859Z,98879.72
2023-03-06T09:41:14.235Z,98883.34
2023-03-06T09:43:48.273Z,98874.41
2023-03-06T09:46:45.890Z,98875.25
2023-03-06T09:49:30.567Z,98883.34
2023-03-06T09:52:28.786Z,98883.34
2023-03-06T09:55:11.277Z,98881.72
2023-03-06T09:58:25.231Z,98891.47
2023-03-06T10:01:14.047Z,98887.97
2023-03-06T10:04:37.127Z,98884.34
2023-03-06T10:07:40.874Z,98876.44
2023-03-06T10:10:20.588Z,98888.63
2023-03-06T10:13:01.923Z,98882.53
2023-03-06T10:15:39.298Z,98884.16
2023-03-06T10:18:06.285Z,98882.16
2023-03-06T10:21:21.126Z,98883.97
2023-03-06T10:24:20.402Z,98879.34
2023-03-06T10:27:00.136Z,98883.28
2023-03-06T10:30:03.664Z,98879.63
2023-03-06T10:33:21.207Z,98869.69
2023-03-06T10:35:53.207Z,98871.81
2023-03-06T10:38:26.563Z,98880.88
2023-03-06T10:41:11.695Z,98879.69
2023-03-06T10:43:44.953Z,98876.50
2023-03-06T10:46:25.823Z,98881.44
2023-03-06T10:49:03.736Z,98870.34
2023-03-06T10:51:31.442Z,98873.44
2023-03-06T10:54:11.791Z,98873.44
2023-03-06T10:56:42.482Z,98874.09
2023-03-06T10:59:27.220Z,98874.72
2023-03-06T11:02:29.232Z,98878.66
2023-03-06T11:04:59.243Z,98876.66
2023-03-06T11:07:32.932Z,98877.94
2023-03-06T11:10:19.838Z,98876.56
2023-03-06T11:13:10.367Z,98876.22
2023-03-06T11:15:37.292Z,98872.56
2023-03-06T11:18:37.045Z,98868.56
2023-03-06T11:21:24.159Z,98870.84
2023-03-06T11:23:52.025Z,98866.38
2023-03-06T11:26:44.637Z,98869.03
2023-03-06T11:29:43.225Z,98862.91
2023-03-06T11:32:28.882Z,98855.34
2023-03-06T11:35:11.201Z,98855.16
2023-03-06T11:37:58.237Z,98856.81
2023-03-06T11:40:31.992Z,98859.63
2023-03-06T11:43:48.617Z,98864.94
2023-03-06T11:46:37.512Z,98851.03
2023-03-06T11:49:30.759Z,98852.72
2023-03-06T11:52:07.020Z,98854.69
2023-03-06T11:54:34.225Z,98853.06
2023-03-06T11:57:07.930Z,98840.41
2023-03-06T11:59:50.685Z,98843.19
2023-03-06T12:02:35.842Z,98839.75
2023-03-06T12:05:36.385Z,98837.09
2023-03-06T12:08:31.387Z,98845.22
2023-03-06T12:11:11.988Z,98837.00
2023-03-06T12:14:10.740Z,98843.28
2023-03-06T12:17:06.787Z,98836.56
2023-03-06T12:20:07.081Z,98825.50
2023-03-06T12:23:22.759Z,98826.88
2023-03-06T12:26:17.569Z,98824.59
2023-03-06T12:29:07.187Z,98819.66
2023-03-06T12:32:06.708Z,98822.66
2023-03-06T12:35:16.393Z,98819.19
2023-03-06T12:38:07.837Z,98816.75
2023-03-06T12:40:59.035Z,98820.19
2023-03-06T12:43:54.864Z,98816.75
2023-03-06T12:46:25.326Z,98816.09
2023-03-06T12:49:31.446Z,98813.47
2023-03-06T12:52:00.907Z,98808.19
2023-03-06T12:54:31.192Z,98816.75
2023-03-06T12:57:00.869Z,98805.16
2023-03-06T12:59:49.036Z,98811.75
2023-03-06T13:02:43.933Z,98803.44
2023-03-06T13:05:33.804Z,98810.03
2023-03-06T13:08:15.738Z,98804.34
2023-03-06T13:10:59.634Z,98810.94
2023-03-06T13:13:41.337Z,98800.81
2023-03-06T13:16:18.334Z,98801.28
2023-03-06T13:19:04.022Z,98802.72
2023-03-06T13:21:46.044Z,98788.16
2023-03-06T13:24:31.569Z,98792.88
2023-03-06T13:27:02.196Z,98795.78
2023-03-06T13:29:38.368Z,98787.13
2023-03-06T13:32:17.677Z,98794.72
2023-03-06T13:34:49.973Z,98793.97
2023-03-06T13:37:20.068Z,98790.75
2023-03-06T13:39:55.483Z,98793.06
2023-03-06T13:42:55.987Z,98798.16
2023-03-06T13:45:43.693Z,98794.31
2023-03-06T13:48:44.589Z,98795.13
2023-03-06T13:51:25.668Z,98792.13
2023-03-06T13:54:38.068Z,98783.19
2023-03-06T13:57:47.914Z,98791.94
2023-03-06T14:01:21.830Z,98790.13
2023-03-06T14:04:38.031Z,98784.19
2023-03-06T14:07:25.028Z,98785.22
2023-03-06T14:10:22.414Z,98772.59
2023-03-06T14:12:49.213Z,98773.81
2023-03-06T14:15:30.740Z,98777.28
2023-03-06T14:18:03.754Z,98770.16
2023-03-06T14:21:05.609Z,98774.97
2023-03-06T14:23:42.329Z,98770.06
2023-03-06T14:26:22.826Z,98761.03
2023-03-06T14:28:52.695Z,98758.94
2023-03-06T14:31:23.571Z,98772.56
2023-03-06T14:33:56.450Z,98764.34
2023-03-06T14:36:41.739Z,98767.72
2023-03-06T14:39:15.223Z,98762.00
2023-03-06T14:41:42.137Z,98765.38
2023-03-06T14:44:26.389Z,98759.78
2023-03-06T14:46:56.620Z,98762.97
2023-03-06T14:49:26.344Z,98764.38
2023-03-06T14:51:57.374Z,98758.78
2023-03-06T14:54:36.721Z,98764.44
2023-03-06T14:57:12.776Z,98760.34
2023-03-06T14:59:58.457Z,98765.16
2023-03-06T15:02:32.699Z,98758.41
2023-03-06T15:05:21.997Z,98756.97
2023-03-06T15:07:50.695Z,98759.59
2023-03-06T15:10:29.415Z,98760.63
2023-03-06T15:13:06.923Z,98755.13
2023-03-06T15:15:33.862Z,98749.66
2023-03-06T15:18:00.953Z,98758.41
2023-03-06T15:20:47.744Z,98747.66
2023-03-06T15:23:26.289Z,98758.88
2023-03-06T15:25:59.230Z,98750.78
2023-03-06T15:28:37.696Z,98763.16
2023-03-06T15:31:18.148Z,98756.88
2023-03-06T15:34:13.074Z,98752.41
2023-03-06T15:36:55.554Z,98763.16
2023-03-06T15:39:40.483Z,98759.50
2023-03-06T15:42:27.900Z,98748.31
2023-03-06T15:45:00.063Z,98750.13
2023-03-06T15:47:27.052Z,98756.25
2023-03-06T15:49:54.059Z,98746.66
2023-03-06T15:52:22.352Z,98755.44
2023-03-06T15:54:49.570Z,98740.38
2023-03-06T15:57:26.565Z,98758.88
2023-03-06T15:59:54.116Z,98746.50
2023-03-06T16:02:24.119Z,98750.13
2023-03-06T16:04:51.703Z,98750.78
2023-03-06T16:07:19.057Z,98752.59
2023-03-06T16:09:46.450Z,98758.69
2023-03-06T16:12:20.134Z,98753.75
2023-03-06T16:14:48.820Z,98746.03
2023-03-06T16:17:16.983Z,98755.78
2023-03-06T16:19:44.328Z,98754.94
2023-03-06T16:22:11.855Z,98754.31
2023-03-06T16:24:38.888Z,98753.50
2023-03-06T16:27:06.769Z,98752.84
2023-03-06T16:29:33.833Z,98745.09
2023-03-06T16:32:03.817Z,98756.69
2023-03-06T16:34:30.779Z,98752.41
2023-03-06T16:36:58.065Z,98756.88
2023-03-06T16:39:25.072Z,98757.03
2023-03-06T16:41:52.597Z,98758.03
2023-03-06T16:44:20.688Z,98760.03
2023-03-06T16:46:50.151Z,98758.41
2023-03-06T16:49:23.642Z,98756.75
2023-03-06T16:51:52.167Z,98760.22
2023-03-06T16:54:20.062Z,98763.22
2023-03-06T16:56:47.151Z,98763.22
2023-03-06T16:59:14.156Z,98760.75
2023-03-06T17:01:45.214Z,98765.22
2023-03-06T17:04:12.503Z,98771.31
2023-03-06T17:06:39.801Z,98770.88
2023-03-06T17:09:07.012Z,98767.56
2023-03-06T17:11:38.595Z,98774.03
2023-03-06T17:14:06.799Z,98781.34
2023-03-06T17:16:33.927Z,98783.97
2023-03-06T17:19:02.295Z,98790.25
2023-03-06T17:21:30.259Z,98787.16
2023-03-06T17:23:57.337Z,98781.38
2023-03-06T17:26:24.552Z,98785.03
2023-03-06T17:28:51.546Z,98781.94
2023-03-06T17:31:27.459Z,98783.28
2023-03-06T17:34:00.160Z,98784.47
2023-03-06T17:36:28.864Z,98789.09
2023-03-06T17:38:58.877Z,98791.09
2023-03-06T17:41:33.492Z,98787.81
2023-03-06T17:44:01.776Z,98800.34
2023-03-06T17:46:29.083Z,98801.34
2023-03-06T17:48:56.906Z,98803.34
2023-03-06T17:51:23.853Z,98804.34
2023-03-06T17:53:52.116Z,98795.81
2023-03-06T17:56:19.351Z,98810.16
2023-03-06T17:58:46.270Z,98801.41
2023-03-06T18:01:23.956Z,98806.06
2023-03-06T18:03:51.311Z,98807.22
2023-03-06T18:06:19.394Z,98809.22
2023-03-06T18:08:47.124Z,98804.13
2023-03-06T18:11:14.656Z,98800.84
2023-03-06T18:13:44.382Z,98808.75
2023-03-06T18:16:14.348Z,98805.31
2023-03-06T18:18:41.692Z,98801.19
2023-03-06T18:21:11.608Z,98801.19
2023-03-06T18:23:39.842Z,98797.09
2023-03-06T18:26:15.384Z,98803.19
2023-03-06T18:28:45.831Z,98799.91
2023-03-06T18:31:25.364Z,98805.19
2023-03-06T18:34:01.607Z,98807.97
2023-03-06T18:36:32.309Z,98808.78
2023-03-06T18:39:02.006Z,98801.88
2023-03-06T18:41:29.990Z,98797.59
2023-03-06T18:43:59.773Z,98795.97
2023-03-06T18:46:34.316Z,98803.88
2023-03-06T18:49:01.524Z,98798.59
2023-03-06T18:51:28.626Z,98796.97
2023-03-06T18:54:04.411Z,98796.97
2023-03-06T18:56:31.805Z,98799.59
2023-03-06T18:59:06.743Z,98802.22
2023-03-06T19:01:34.449Z,98805.88
2023-03-06T19:04:03.465Z,98800.59
2023-03-06T19:06:31.235Z,98801.41
2023-03-06T19:08:58.730Z,98804.06
2023-03-06T19:11:27.035Z,98797.97
2023-03-06T19:13:54.442Z,98793.66
2023-03-06T19:16:25.548Z,98794.50
2023-03-06T19:18:57.255Z,98792.00
2023-03-06T19:21:26.746Z,98796.47
2023-03-06T19:23:54.222Z,98806.22
2023-03-06T19:26:21.638Z,98796.66
2023-03-06T19:28:49.654Z,98794.00
2023-03-06T19:31:28.306Z,98797.66
2023-03-06T19:33:56.798Z,98797.66
2023-03-06T19:36:28.503Z,98787.09
2023-03-06T19:39:01.217Z,98796.84
2023-03-06T19:41:29.282Z,98798.66
2023-03-06T19:43:59.141Z,98791.56
2023-03-06T19:46:26.820Z,98798.66
2023-03-06T19:48:59.817Z,98785.47
2023-03-06T19:51:28.101Z,98786.47
2023-03-06T19:53:57.334Z,98789.09
2023-03-06T19:56:27.151Z,98783.81
2023-03-06T19:58:54.605Z,98782.97
2023-03-06T20:01:24.672Z,98787.44
2023-03-06T20:03:58.944Z,98786.63
2023-03-06T20:06:30.141Z,98780.50
2023-03-06T20:08:57.157Z,98777.06
2023-03-06T20:11:29.760Z,98773.59
2023-03-06T20:13:59.424Z,98770.97
2023-03-06T20:16:30.597Z,98771.78
2023-03-06T20:18:59.867Z,98768.31
2023-03-06T20:21:29.572Z,98771.16
2023-03-06T20:23:58.068Z,98774.78
2023-03-06T20:26:27.238Z,98766.88
2023-03-06T20:28:54.754Z,98764.22
2023-03-06T20:31:25.567Z,98762.59
2023-03-06T20:33:54.925Z,98764.38
2023-03-06T20:36:27.915Z,98760.78
2023-03-06T20:38:56.610Z,98765.22
2023-03-06T20:41:26.275Z,98756.47
2023-03-06T20:43:54.384Z,98756.47
2023-03-06T20:46:23.133Z,98746.91
2023-03-06T20:48:52.350Z,98754.81
2023-03-06T20:51:27.799Z,98757.47
2023-03-06T20:53:56.038Z,98758.47
2023-03-06T20:56:26.738Z,98754.81
2023-03-06T20:58:54.035Z,98747.91
2023-03-06T21:01:23.485Z,98754.00
2023-03-06T21:03:51.004Z,98757.47
2023-03-06T21:06:19.154Z,98750.56
2023-03-06T21:08:46.796Z,98748.72
2023-03-06T21:11:13.874Z,98748.72
2023-03-06T21:13:40.978Z,98752.19
2023-03-06T21:16:14.465Z,98752.19
2023-03-06T21:18:42.360Z,98749.56
2023-03-06T21:21:13.850Z,98746.91
2023-03-06T21:23:41.138Z,98740.63
2023-03-06T21:26:14.094Z,98737.19
2023-03-06T21:28:41.386Z,98739.00
2023-03-06T21:31:11.842Z,98738.00
2023-03-06T21:33:39.612Z,98739.66
2023-03-06T21:36:07.621Z,98739.66
2023-03-06T21:38:34.929Z,98735.22
2023-03-06T21:41:24.613Z,98728.28
2023-03-06T21:44:04.066Z,98730.09
2023-03-06T21:46:31.536Z,98725.66
2023-03-06T21:48:58.751Z,98724.00
2023-03-06T21:51:28.684Z,98723.16
2023-03-06T21:53:55.779Z,98722.53
2023-03-06T21:56:25.309Z,98719.91
2023-03-06T21:58:52.939Z,98724.34
2023-03-06T22:01:24.508Z,98720.91
2023-03-06T22:03:51.800Z,98715.81
2023-03-06T22:06:22.870Z,98721.06
2023-03-06T22:08:49.821Z,98718.59
2023-03-06T22:11:19.383Z,98710.88
2023-03-06T22:13:48.122Z,98718.78
2023-03-06T22:16:16.774Z,98703.13
2023-03-06T22:18:49.385Z,98704.78
2023-03-06T22:21:19.230Z,98704.78
2023-03-06T22:23:51.174Z,98701.13
2023-03-06T22:26:18.493Z,98697.84
2023-03-06T22:28:45.638Z,98702.13
2023-03-06T22:31:20.005Z,98697.84
2023-03-06T22:33:51.250Z,98694.22
2023-03-06T22:36:19.527Z,98693.41
2023-03-06T22:38:47.384Z,98696.03
2023-03-06T22:41:17.407Z,98693.22
2023-03-06T22:43:44.414Z,98693.41
2023-03-06T22:46:15.910Z,98687.31
2023-03-06T22:48:43.762Z,98689.94
2023-03-06T22:51:14.278Z,98688.13
2023-03-06T22:53:41.845Z,98685.66
2023-03-06T22:56:12.511Z,98693.41
2023-03-06T22:58:40.285Z,98689.13
2023-03-06T23:01:13.678Z,98675.94
2023-03-06T23:03:44.293Z,98683.84
2023-03-06T23:06:16.677Z,98675.94
2023-03-06T23:08:48.328Z,98674.94
2023-03-06T23:11:17.593Z,98670.66
2023-03-06T23:14:05.308Z,98678.56
2023-03-06T23:16:51.160Z,98670.84
2023-03-06T23:19:36.439Z,98679.56
2023-03-06T23:22:22.716Z,98670.84
2023-03-06T23:25:09.144Z,98663.91
2023-03-06T23:27:36.435Z,98657.00
2023-03-06T23:30:05.499Z,98663.91
2023-03-06T23:32:33.503Z,98656.00
2023-03-06T23:35:00.930Z,98650.72
2023-03-06T23:37:27.859Z,98660.63
2023-03-06T23:39:55.182Z,98659.63
2023-03-06T23:42:22.589Z,98663.09
2023-03-06T23:44:49.632Z,98661.25
2023-03-06T23:47:17.227Z,98664.09
2023-03-06T23:49:44.201Z,98664.09
2023-03-06T23:52:11.120Z,98664.91
2023-03-06T23:54:38.186Z,98658.00
2023-03-06T23:57:05.149Z,98662.25
2023-03-06T23:59:32.091Z,98658.00
